createdAt,value
2022-08-18T00:00:18.385Z,95214.27
2022-08-18T00:03:00.532Z,95225.15
2022-08-18T00:05:23.901Z,95221.25
2022-08-18T00:07:56.885Z,95222.44
2022-08-18T00:10:27.150Z,95228.48
2022-08-18T00:13:01.156Z,95228.90
2022-08-18T00:15:29.684Z,95231.61
2022-08-18T00:17:58.964Z,95229.93
2022-08-18T00:20:29.608Z,95231.31
2022-08-18T00:23:00.091Z,95227.85
2022-08-18T00:25:30.476Z,95222.84
2022-08-18T00:27:59.252Z,95227.45
2022-08-18T00:30:31.837Z,95227.49
2022-08-18T00:33:02.933Z,95233.27
2022-08-18T00:35:34.877Z,95230.75
2022-08-18T00:38:06.464Z,95227.37
2022-08-18T00:40:42.511Z,95223.50
2022-08-18T00:43:19.726Z,95225.55
2022-08-18T00:45:49.202Z,95223.66
2022-08-18T00:48:25.127Z,95227.80
2022-08-18T00:51:00.698Z,95233.89
2022-08-18T00:53:33.452Z,95238.47
2022-08-18T00:56:09.995Z,95239.52
2022-08-18T00:58:46.283Z,95242.55
2022-08-18T01:01:17.471Z,95246.28
2022-08-18T01:03:52.547Z,95251.70
2022-08-18T01:06:33.502Z,95241.80
2022-08-18T01:09:03.490Z,95244.59
2022-08-18T01:11:36.195Z,95241.87
2022-08-18T01:14:10.090Z,95239.10
2022-08-18T01:16:58.046Z,95239.53
2022-08-18T01:19:52.254Z,95240.20
2022-08-18T01:22:32.765Z,95244.52
2022-08-18T01:25:21.173Z,95241.20
2022-08-18T01:27:53.441Z,95244.77
2022-08-18T01:30:23.851Z,95238.00
2022-08-18T01:32:55.922Z,95233.78
2022-08-18T01:35:27.207Z,95238.59
2022-08-18T01:37:56.497Z,95243.32
2022-08-18T01:41:17.592Z,95241.57
2022-08-18T01:42:56.944Z,95242.99
2022-08-18T01:45:27.263Z,95238.25
2022-08-18T01:47:59.783Z,95231.42
2022-08-18T01:50:30.311Z,95232.77
2022-08-18T01:53:00.726Z,95224.67
2022-08-18T01:55:29.512Z,95227.54
2022-08-18T01:58:01.789Z,95225.23
2022-08-18T02:00:34.304Z,95222.36
2022-08-18T02:03:09.991Z,95225.56
2022-08-18T02:05:46.494Z,95232.56
2022-08-18T02:08:16.581Z,95220.53
2022-08-18T02:10:45.494Z,95221.89
2022-08-18T02:13:15.877Z,95228.05
2022-08-18T02:15:44.589Z,95236.74
2022-08-18T02:18:30.430Z,95239.77
2022-08-18T02:20:50.268Z,95236.74
2022-08-18T02:23:19.048Z,95237.88
2022-08-18T02:25:50.383Z,95233.55
2022-08-18T02:28:19.087Z,95235.02
2022-08-18T02:30:49.332Z,95236.63
2022-08-18T02:33:18.328Z,95235.13
2022-08-18T02:35:50.062Z,95232.31
2022-08-18T02:38:22.956Z,95235.02
2022-08-18T02:41:08.312Z,95224.36
2022-08-18T02:43:39.324Z,95220.65
2022-08-18T02:46:08.587Z,95219.57
2022-08-18T02:48:37.351Z,95232.23
2022-08-18T02:51:12.622Z,95229.77
2022-08-18T02:53:47.027Z,95236.85
2022-08-18T02:56:40.159Z,95235.70
2022-08-18T02:59:01.719Z,95237.53
2022-08-18T03:01:33.327Z,95235.70
2022-08-18T03:04:04.344Z,95234.53
2022-08-18T03:06:39.937Z,95238.91
2022-08-18T03:09:10.580Z,95236.53
2022-08-18T03:11:39.836Z,95235.77
2022-08-18T03:14:12.371Z,95236.37
2022-08-18T03:16:52.885Z,95240.34
2022-08-18T03:19:17.541Z,95238.72
2022-08-18T03:21:50.434Z,95243.59
2022-08-18T03:24:23.014Z,95246.12
2022-08-18T03:26:50.361Z,95241.73
2022-08-18T03:29:19.525Z,95249.12
2022-08-18T03:31:51.384Z,95250.33
2022-08-18T03:34:22.172Z,95252.28
2022-08-18T03:36:52.384Z,95251.21
2022-08-18T03:39:27.794Z,95258.38
2022-08-18T03:42:02.101Z,95253.27
2022-08-18T03:44:30.790Z,95255.52
2022-08-18T03:47:03.355Z,95256.02
2022-08-18T03:49:34.084Z,95253.34
2022-08-18T03:52:03.901Z,95256.92
2022-08-18T03:54:33.620Z,95257.09
2022-08-18T03:57:40.670Z,95254.60
2022-08-18T04:00:15.274Z,95183.66
2022-08-18T04:02:51.059Z,95259.81
2022-08-18T04:05:19.945Z,95258.56
2022-08-18T04:07:48.998Z,95263.47
2022-08-18T04:10:19.287Z,95236.35
2022-08-18T04:12:48.719Z,95269.48
2022-08-18T04:15:22.015Z,95271.43
2022-08-18T04:18:03.055Z,95272.95
2022-08-18T04:20:27.652Z,95268.25
2022-08-18T04:22:58.465Z,95281.07
2022-08-18T04:25:32.601Z,95283.81
2022-08-18T04:28:01.506Z,95284.80
2022-08-18T04:30:34.697Z,95280.84
2022-08-18T04:33:06.507Z,95285.66
2022-08-18T04:35:35.282Z,95284.41
2022-08-18T04:38:04.791Z,95286.01
2022-08-18T04:40:34.520Z,95286.01
2022-08-18T04:43:10.838Z,95296.77
2022-08-18T04:45:37.137Z,95296.42
2022-08-18T04:48:06.988Z,95288.86
2022-08-18T04:50:37.513Z,95289.78
2022-08-18T04:53:24.936Z,95286.35
2022-08-18T04:55:56.510Z,95288.38
2022-08-18T04:58:26.096Z,95292.73
2022-08-18T05:01:00.686Z,95293.53
2022-08-18T05:03:29.810Z,95300.46
2022-08-18T05:06:00.436Z,95303.42
2022-08-18T05:08:36.356Z,95295.69
2022-08-18T05:11:05.885Z,95301.75
2022-08-18T05:13:36.830Z,95300.30
2022-08-18T05:16:11.861Z,95298.87
2022-08-18T05:18:42.729Z,95303.41
2022-08-18T05:21:16.004Z,95306.25
2022-08-18T05:23:46.658Z,95298.77
2022-08-18T05:26:16.558Z,95307.58
2022-08-18T05:28:46.367Z,95314.20
2022-08-18T05:31:17.854Z,95306.48
2022-08-18T05:33:48.609Z,95303.57
2022-08-18T05:36:23.103Z,95307.30
2022-08-18T05:39:04.253Z,95309.32
2022-08-18T05:41:37.689Z,95312.89
2022-08-18T05:44:08.610Z,95311.05
2022-08-18T05:46:55.657Z,95315.34
2022-08-18T05:49:27.118Z,95319.70
2022-08-18T05:52:05.252Z,95318.80
2022-08-18T05:54:57.582Z,95316.22
2022-08-18T05:57:29.228Z,95316.56
2022-08-18T05:59:58.825Z,95324.94
2022-08-18T06:02:36.366Z,95317.66
2022-08-18T06:05:15.336Z,95317.55
2022-08-18T06:07:47.152Z,95320.08
2022-08-18T06:10:16.735Z,95312.69
2022-08-18T06:12:52.451Z,95312.75
2022-08-18T06:15:49.750Z,95309.38
2022-08-18T06:18:38.078Z,95307.22
2022-08-18T06:21:30.308Z,95310.17
2022-08-18T06:24:21.570Z,95317.98
2022-08-18T06:27:12.318Z,95313.80
2022-08-18T06:29:50.445Z,95314.09
2022-08-18T06:32:43.299Z,95314.22
2022-08-18T06:35:20.947Z,95313.53
2022-08-18T06:38:18.211Z,95319.64
2022-08-18T06:40:59.015Z,95319.27
2022-08-18T06:43:32.702Z,95319.07
2022-08-18T06:46:02.731Z,95317.47
2022-08-18T06:48:45.888Z,95312.82
2022-08-18T06:51:18.063Z,95308.30
2022-08-18T06:54:01.554Z,95300.88
2022-08-18T06:56:35.919Z,95295.12
2022-08-18T06:59:31.580Z,95292.85
2022-08-18T07:02:18.217Z,95288.63
2022-08-18T07:05:08.172Z,95284.23
2022-08-18T07:07:43.953Z,95282.26
2022-08-18T07:10:20.669Z,95281.61
2022-08-18T07:12:49.087Z,95275.41
2022-08-18T07:15:20.734Z,95277.91
2022-08-18T07:17:50.887Z,95282.86
2022-08-18T07:20:22.901Z,95278.58
2022-08-18T07:23:08.382Z,95272.50
2022-08-18T07:25:43.361Z,95267.33
2022-08-18T07:28:37.729Z,95265.41
2022-08-18T07:31:17.215Z,95266.22
2022-08-18T07:34:05.321Z,95266.87
2022-08-18T07:36:36.933Z,95271.00
2022-08-18T07:39:12.305Z,95271.62
2022-08-18T07:41:57.488Z,95272.90
2022-08-18T07:44:29.117Z,95265.48
2022-08-18T07:47:01.215Z,95270.64
2022-08-18T07:49:36.235Z,95266.95
2022-08-18T07:52:43.808Z,95266.23
2022-08-18T07:54:55.888Z,95262.70
2022-08-18T07:57:52.937Z,95266.79
2022-08-18T08:03:29.653Z,95267.23
2022-08-18T08:06:01.505Z,95267.98
2022-08-18T08:08:49.276Z,95259.69
2022-08-18T08:11:54.451Z,95265.51
2022-08-18T08:14:35.598Z,95267.92
2022-08-18T08:17:25.594Z,95263.55
2022-08-18T08:20:16.797Z,95264.88
2022-08-18T08:23:03.846Z,95265.48
2022-08-18T08:25:53.698Z,95263.16
2022-08-18T08:28:31.995Z,95255.46
2022-08-18T08:33:51.643Z,95251.82
2022-08-18T08:36:26.280Z,95247.61
2022-08-18T08:39:06.739Z,95243.29
2022-08-18T08:41:39.640Z,95248.63
2022-08-18T08:44:11.267Z,95252.41
2022-08-18T08:46:55.927Z,95247.34
2022-08-18T08:49:39.051Z,95244.72
2022-08-18T08:52:22.812Z,95248.16
2022-08-18T08:55:12.480Z,95250.89
2022-08-18T08:57:44.076Z,95244.86
2022-08-18T09:00:14.644Z,95247.84
2022-08-18T09:02:52.479Z,95240.03
2022-08-18T09:05:27.772Z,95241.16
2022-08-18T09:08:22.497Z,95249.85
2022-08-18T09:11:09.275Z,95253.52
2022-08-18T09:13:50.269Z,95240.88
2022-08-18T09:16:30.694Z,95240.41
2022-08-18T09:19:13.165Z,95235.66
2022-08-18T09:21:54.983Z,95235.20
2022-08-18T09:24:33.151Z,95227.20
2022-08-18T09:27:08.532Z,95216.25
2022-08-18T09:29:57.814Z,95220.08
2022-08-18T09:35:51.877Z,95214.42
2022-08-18T09:38:42.670Z,95217.39
2022-08-18T09:44:31.371Z,95202.26
2022-08-18T09:47:04.584Z,95200.39
2022-08-18T09:49:47.707Z,95207.17
2022-08-18T09:52:31.639Z,95203.40
2022-08-18T09:55:03.264Z,95202.41
2022-08-18T10:08:34.189Z,95192.31
2022-08-18T10:10:31.175Z,95178.40
2022-08-18T10:13:57.190Z,95174.66
2022-08-18T10:17:13.229Z,95177.95
2022-08-18T10:22:15.980Z,95175.19
2022-08-18T10:25:22.336Z,95174.67
2022-08-18T10:27:50.614Z,95173.64
2022-08-18T10:30:57.455Z,95165.77
2022-08-18T10:33:18.446Z,95166.39
2022-08-18T10:35:53.458Z,95164.20
2022-08-18T10:38:30.796Z,95159.80
2022-08-18T10:43:55.313Z,95154.29
2022-08-18T10:46:39.477Z,95161.14
2022-08-18T10:49:24.764Z,95160.06
2022-08-18T10:52:20.819Z,95149.73
2022-08-18T10:55:10.332Z,95113.38
2022-08-18T10:58:08.727Z,95156.62
2022-08-18T11:00:43.788Z,95152.00
2022-08-18T11:05:55.077Z,95139.53
2022-08-18T11:08:25.024Z,95133.55
2022-08-18T11:11:32.865Z,95133.02
2022-08-18T11:13:36.339Z,95131.86
2022-08-18T11:16:17.097Z,95125.31
2022-08-18T11:18:53.030Z,95128.20
2022-08-18T11:21:41.770Z,95128.49
2022-08-18T11:24:30.026Z,95131.63
2022-08-18T11:27:04.144Z,95133.56
2022-08-18T11:29:42.801Z,95124.16
2022-08-18T11:32:14.771Z,95125.27
2022-08-18T11:34:53.078Z,95123.05
2022-08-18T11:37:53.446Z,95133.11
2022-08-18T11:43:40.774Z,95121.10
2022-08-18T11:46:35.491Z,95121.39
2022-08-18T11:49:18.214Z,95127.30
2022-08-18T12:08:57.173Z,95102.19
2022-08-18T12:11:26.493Z,95095.58
2022-08-18T12:16:50.188Z,95090.99
2022-08-18T12:19:19.697Z,95087.77
2022-08-18T12:21:59.229Z,95085.05
2022-08-18T12:24:40.150Z,95088.24
2022-08-18T12:27:20.372Z,95089.72
2022-08-18T12:29:50.430Z,95083.47
2022-08-18T12:32:49.951Z,95079.66
2022-08-18T12:35:42.976Z,95084.35
2022-08-18T12:38:18.287Z,95072.58
2022-08-18T12:41:06.920Z,95077.45
2022-08-18T12:43:59.186Z,95077.61
2022-08-18T12:46:30.758Z,95073.62
2022-08-18T12:49:30.350Z,95078.57
2022-08-18T12:52:27.375Z,95080.76
2022-08-18T13:01:05.458Z,95078.41
2022-08-18T13:03:36.978Z,95079.68
2022-08-18T13:06:06.491Z,95075.55
2022-08-18T13:08:48.123Z,95073.52
2022-08-18T13:11:23.841Z,95065.79
2022-08-18T13:13:53.116Z,95068.86
2022-08-18T13:16:39.032Z,95055.46
2022-08-18T13:19:00.124Z,95066.36
2022-08-18T13:21:41.131Z,95069.82
2022-08-18T13:24:01.733Z,95058.59
2022-08-18T13:26:34.792Z,95053.81
2022-08-18T13:29:04.387Z,95053.94
2022-08-18T13:31:34.841Z,95046.81
2022-08-18T13:34:12.686Z,95050.04
2022-08-18T13:36:45.916Z,95047.00
2022-08-18T13:39:16.968Z,95038.39
2022-08-18T13:41:47.684Z,95048.64
2022-08-18T13:44:19.817Z,95045.32
2022-08-18T13:46:55.059Z,95041.50
2022-08-18T13:49:30.408Z,95039.39
2022-08-18T13:52:01.197Z,95044.06
2022-08-18T13:54:35.428Z,95039.39
2022-08-18T13:57:06.617Z,95036.31
2022-08-18T13:59:35.599Z,95041.97
2022-08-18T14:02:08.806Z,95036.27
2022-08-18T14:04:39.210Z,95022.53
2022-08-18T14:07:18.299Z,95025.08
2022-08-18T14:09:45.977Z,95022.55
2022-08-18T14:12:33.410Z,95028.45
2022-08-18T14:15:18.538Z,95022.13
2022-08-18T14:17:48.057Z,95031.63
2022-08-18T14:20:35.738Z,95025.00
2022-08-18T14:23:33.193Z,95025.77
2022-08-18T14:26:13.286Z,95021.52
2022-08-18T14:28:42.587Z,95026.55
2022-08-18T14:31:14.471Z,95025.77
2022-08-18T14:33:50.402Z,95022.84
2022-08-18T14:36:19.653Z,95019.60
2022-08-18T14:38:51.510Z,95023.70
2022-08-18T14:41:27.392Z,95015.92
2022-08-18T14:44:13.543Z,95011.88
2022-08-18T14:47:10.368Z,95009.55
2022-08-18T14:50:05.194Z,95020.75
2022-08-18T14:55:23.322Z,95020.55
2022-08-18T14:58:03.805Z,95003.42
2022-08-18T15:00:34.765Z,95019.80
2022-08-18T15:03:06.440Z,95020.00
2022-08-18T15:05:35.654Z,95025.02
2022-08-18T15:08:06.211Z,95026.26
2022-08-18T15:10:35.020Z,95021.20
2022-08-18T15:13:04.529Z,95021.72
2022-08-18T15:15:50.736Z,95025.66
2022-08-18T15:18:07.490Z,95034.18
2022-08-18T15:20:41.532Z,95025.64
2022-08-18T15:23:29.075Z,95033.31
2022-08-18T15:25:59.015Z,95024.97
2022-08-18T15:28:29.632Z,95030.20
2022-08-18T15:33:31.687Z,95033.13
2022-08-18T15:36:04.533Z,95033.63
2022-08-18T15:38:33.684Z,95030.03
2022-08-18T15:41:06.295Z,95036.61
2022-08-18T15:43:46.149Z,95034.20
2022-08-18T15:46:16.861Z,95031.00
2022-08-18T15:48:47.476Z,95033.17
2022-08-18T15:51:17.908Z,95031.30
2022-08-18T15:53:48.535Z,95028.33
2022-08-18T15:56:20.933Z,95032.25
2022-08-18T15:58:51.013Z,95028.61
2022-08-18T16:01:32.417Z,95028.30
2022-08-18T16:03:54.677Z,95028.70
2022-08-18T16:06:32.381Z,95027.02
2022-08-18T16:08:56.983Z,95027.76
2022-08-18T16:11:29.173Z,95024.89
2022-08-18T16:13:58.251Z,95027.77
2022-08-18T16:16:35.468Z,95021.03
2022-08-18T16:18:58.391Z,95037.64
2022-08-18T16:21:27.577Z,95039.31
2022-08-18T16:24:01.261Z,95033.64
2022-08-18T16:26:31.613Z,95037.02
2022-08-18T16:29:02.060Z,95035.92
2022-08-18T16:31:30.827Z,95038.28
2022-08-18T16:33:59.879Z,95036.83
2022-08-18T16:36:30.154Z,95048.59
2022-08-18T16:39:02.118Z,95040.49
2022-08-18T16:41:32.094Z,95049.41
2022-08-18T16:44:01.045Z,95048.34
2022-08-18T16:46:32.518Z,95044.23
2022-08-18T16:49:05.742Z,95051.28
2022-08-18T16:51:34.935Z,95060.92
2022-08-18T16:54:04.276Z,95053.28
2022-08-18T16:56:36.690Z,95054.55
2022-08-18T16:59:10.035Z,95051.83
2022-08-18T17:01:57.337Z,95052.34
2022-08-18T17:04:29.075Z,95056.09
2022-08-18T17:06:58.415Z,95057.20
2022-08-18T17:09:28.644Z,95057.93
2022-08-18T17:11:57.621Z,95061.55
2022-08-18T17:14:29.298Z,95058.29
2022-08-18T17:17:00.630Z,95058.52
2022-08-18T17:19:33.298Z,95054.24
2022-08-18T17:22:05.873Z,95064.26
2022-08-18T17:24:34.573Z,95049.80
2022-08-18T17:27:26.334Z,95066.88
2022-08-18T17:30:10.181Z,95067.95
2022-08-18T17:33:01.443Z,95068.02
2022-08-18T17:35:40.910Z,95078.78
2022-08-18T17:38:15.813Z,95080.02
2022-08-18T17:40:51.110Z,95083.56
2022-08-18T17:43:22.604Z,95087.97
2022-08-18T17:45:57.286Z,95084.60
2022-08-18T17:48:34.052Z,95093.91
2022-08-18T17:51:29.521Z,95104.00
2022-08-18T17:54:01.139Z,95105.44
2022-08-18T17:56:38.974Z,95112.19
2022-08-18T17:59:45.671Z,95118.61
2022-08-18T18:01:50.778Z,95112.88
2022-08-18T18:04:19.448Z,95124.90
2022-08-18T18:06:54.792Z,95129.01
2022-08-18T18:09:28.674Z,95135.60
2022-08-18T18:11:57.723Z,95140.41
2022-08-18T18:14:32.174Z,95140.63
2022-08-18T18:17:12.697Z,95150.77
2022-08-18T18:19:39.605Z,95153.91
2022-08-18T18:22:11.453Z,95164.98
2022-08-18T18:24:43.084Z,95160.59
2022-08-18T18:27:31.266Z,95155.61
2022-08-18T18:30:02.634Z,95159.58
2022-08-18T18:32:39.259Z,95161.35
2022-08-18T18:35:27.451Z,95165.40
2022-08-18T18:38:07.704Z,95167.96
2022-08-18T18:40:42.482Z,95168.92
2022-08-18T18:43:28.745Z,95164.94
2022-08-18T18:46:00.369Z,95167.16
2022-08-18T18:48:45.162Z,95167.70
2022-08-18T18:51:10.970Z,95165.12
2022-08-18T18:53:45.820Z,95169.72
2022-08-18T18:56:27.143Z,95166.61
2022-08-18T18:59:14.263Z,95168.39
2022-08-18T19:01:48.938Z,95168.32
2022-08-18T19:04:20.667Z,95164.73
2022-08-18T19:07:11.817Z,95161.86
2022-08-18T19:10:03.112Z,95163.13
2022-08-18T19:12:37.463Z,95171.88
2022-08-18T19:15:15.385Z,95167.12
2022-08-18T19:17:47.055Z,95168.56
2022-08-18T19:20:18.693Z,95165.89
2022-08-18T19:23:02.429Z,95165.00
2022-08-18T19:25:34.345Z,95160.17
2022-08-18T19:28:05.928Z,95162.38
2022-08-18T19:30:37.459Z,95163.98
2022-08-18T19:33:07.867Z,95161.47
2022-08-18T19:35:42.518Z,95159.02
2022-08-18T19:38:24.709Z,95162.98
2022-08-18T19:41:19.962Z,95165.58
2022-08-18T19:43:52.439Z,95159.51
2022-08-18T19:46:30.178Z,95155.83
2022-08-18T19:49:30.730Z,95153.72
2022-08-18T19:52:02.822Z,95157.39
2022-08-18T19:54:54.220Z,95159.52
2022-08-18T19:57:48.108Z,95157.39
2022-08-18T20:00:26.637Z,95154.20
2022-08-18T20:03:11.990Z,95152.61
2022-08-18T20:06:20.887Z,95148.34
2022-08-18T20:09:11.776Z,95146.67
2022-08-18T20:12:00.083Z,95142.20
2022-08-18T20:14:29.738Z,95145.23
2022-08-18T20:17:20.829Z,95144.31
2022-08-18T20:19:55.210Z,95142.34
2022-08-18T20:22:27.003Z,95147.25
2022-08-18T20:25:07.875Z,95140.60
2022-08-18T20:27:43.313Z,95147.86
2022-08-18T20:30:35.435Z,95147.91
2022-08-18T20:33:15.418Z,95152.47
2022-08-18T20:36:02.501Z,95149.60
2022-08-18T20:38:37.132Z,95155.38
2022-08-18T20:41:31.664Z,95162.05
2022-08-18T20:44:28.717Z,95164.17
2022-08-18T20:47:10.704Z,95165.53
2022-08-18T20:49:48.429Z,95160.11
2022-08-18T20:52:30.083Z,95164.05
2022-08-18T20:55:11.445Z,95155.73
2022-08-18T20:57:39.442Z,95159.38
2022-08-18T21:00:22.644Z,95161.20
2022-08-18T21:05:50.894Z,95126.40
2022-08-18T21:08:44.091Z,95163.78
2022-08-18T21:11:15.353Z,95160.47
2022-08-18T21:14:25.036Z,95165.91
2022-08-18T21:16:52.309Z,95175.44
2022-08-18T21:26:40.200Z,95162.39
2022-08-18T21:29:19.262Z,95139.08
2022-08-18T21:32:12.889Z,95165.24
2022-08-18T21:37:52.259Z,95155.27
2022-08-18T21:44:08.652Z,95163.42
2022-08-18T21:46:42.569Z,95163.88
2022-08-18T21:49:16.481Z,95161.59
2022-08-18T21:51:53.334Z,95157.67
2022-08-18T21:54:25.365Z,95165.82
2022-08-18T21:57:21.559Z,95165.35
2022-08-18T22:00:19.571Z,95163.05
2022-08-18T22:02:51.438Z,95170.33
2022-08-18T22:05:58.892Z,95166.63
2022-08-18T22:08:09.461Z,95169.95
2022-08-18T22:11:00.936Z,95165.70
2022-08-18T22:13:48.386Z,95167.96
2022-08-18T22:16:27.050Z,95160.20
2022-08-18T22:19:23.104Z,95159.72
2022-08-18T22:22:00.623Z,95160.03
2022-08-18T22:24:40.632Z,95160.03
2022-08-18T22:27:15.545Z,95167.70
2022-08-18T22:29:48.025Z,95163.89
2022-08-18T22:32:17.360Z,95157.67
2022-08-18T22:34:46.385Z,95165.83
2022-08-18T22:37:19.418Z,95160.05
2022-08-18T22:40:03.384Z,95157.22
2022-08-18T22:42:34.266Z,95153.30
2022-08-18T22:45:05.567Z,95153.89
2022-08-18T22:47:44.965Z,95147.07
2022-08-18T22:50:05.801Z,95150.09
2022-08-18T22:52:46.129Z,95149.59
2022-08-18T22:55:23.172Z,95143.86
2022-08-18T22:57:49.101Z,95151.16
2022-08-18T23:00:25.503Z,95149.79
2022-08-18T23:02:56.271Z,95146.63
2022-08-18T23:05:25.430Z,95138.44
2022-08-18T23:07:54.520Z,95141.16
2022-08-18T23:10:23.677Z,95140.02
2022-08-18T23:12:55.926Z,95138.92
2022-08-18T23:15:43.790Z,95140.11
2022-08-18T23:18:20.242Z,95144.44
2022-08-18T23:20:51.371Z,95142.79
2022-08-18T23:23:26.615Z,95139.70
2022-08-18T23:25:57.266Z,95139.55
2022-08-18T23:28:27.449Z,95136.66
2022-08-18T23:31:01.557Z,95139.97
2022-08-18T23:33:34.390Z,95145.84
2022-08-18T23:36:04.514Z,95138.84
2022-08-18T23:38:35.553Z,95138.14
2022-08-18T23:41:07.446Z,95127.84
2022-08-18T23:43:38.485Z,95124.27
2022-08-18T23:46:10.908Z,95128.69
2022-08-18T23:48:41.201Z,95126.34
2022-08-18T23:51:23.946Z,95127.14
2022-08-18T23:53:55.368Z,95127.38
2022-08-18T23:56:24.843Z,95119.20
2022-08-18T23:58:56.299Z,95113.30
